sensor_id;sensor_type;location;lat;lon;timestamp;temperature;humidity
20231;DHT22;10274;49.022;9.338;2023-01-04T00:01:29;2.60;99.90
20231;DHT22;10274;49.022;9.338;2023-01-04T00:03:56;2.70;99.90
20231;DHT22;10274;49.022;9.338;2023-01-04T00:06:23;2.80;99.90
20231;DHT22;10274;49.022;9.338;2023-01-04T00:08:49;2.80;99.90
20231;DHT22;10274;49.022;9.338;2023-01-04T00:11:17;2.90;99.90
20231;DHT22;10274;49.022;9.338;2023-01-04T00:13:45;2.40;99.90
20231;DHT22;10274;49.022;9.338;2023-01-04T00:16:15;2.40;99.90
20231;DHT22;10274;49.022;9.338;2023-01-04T00:18:42;2.50;99.90
20231;DHT22;10274;49.022;9.338;2023-01-04T00:21:10;3.10;99.90
20231;DHT22;10274;49.022;9.338;2023-01-04T00:23:37;3.70;99.90
20231;DHT22;10274;49.022;9.338;2023-01-04T00:26:08;4.20;99.90
20231;DHT22;10274;49.022;9.338;2023-01-04T00:28:36;4.30;99.90
20231;DHT22;10274;49.022;9.338;2023-01-04T00:31:03;4.60;99.90
20231;DHT22;10274;49.022;9.338;2023-01-04T00:33:32;4.70;99.90
20231;DHT22;10274;49.022;9.338;2023-01-04T00:36:03;4.80;99.90
20231;DHT22;10274;49.022;9.338;2023-01-04T00:38:31;4.70;99.90
20231;DHT22;10274;49.022;9.338;2023-01-04T00:40:58;4.90;99.90
20231;DHT22;10274;49.022;9.338;2023-01-04T00:43:24;4.90;93.70
20231;DHT22;10274;49.022;9.338;2023-01-04T00:45:51;4.90;94.00
20231;DHT22;10274;49.022;9.338;2023-01-04T00:48:18;5.10;93.30
20231;DHT22;10274;49.022;9.338;2023-01-04T00:50:47;5.00;86.50
20231;DHT22;10274;49.022;9.338;2023-01-04T00:53:16;5.00;90.60
20231;DHT22;10274;49.022;9.338;2023-01-04T00:55:43;5.00;90.50
20231;DHT22;10274;49.022;9.338;2023-01-04T00:58:11;5.00;81.70
20231;DHT22;10274;49.022;9.338;2023-01-04T01:00:38;5.00;69.50
20231;DHT22;10274;49.022;9.338;2023-01-04T01:03:05;5.00;69.00
20231;DHT22;10274;49.022;9.338;2023-01-04T01:05:32;5.00;71.30
20231;DHT22;10274;49.022;9.338;2023-01-04T01:08:01;5.00;64.30
20231;DHT22;10274;49.022;9.338;2023-01-04T01:10:49;5.10;49.60
20231;DHT22;10274;49.022;9.338;2023-01-04T01:13:15;5.20;37.90
20231;DHT22;10274;49.022;9.338;2023-01-04T01:15:42;5.10;39.40
20231;DHT22;10274;49.022;9.338;2023-01-04T01:18:09;5.00;42.60
20231;DHT22;10274;49.022;9.338;2023-01-04T01:20:40;5.00;47.70
20231;DHT22;10274;49.022;9.338;2023-01-04T01:23:08;4.80;48.50
20231;DHT22;10274;49.022;9.338;2023-01-04T01:25:35;4.80;59.20
20231;DHT22;10274;49.022;9.338;2023-01-04T01:28:01;4.70;46.10
20231;DHT22;10274;49.022;9.338;2023-01-04T01:30:28;4.60;55.30
20231;DHT22;10274;49.022;9.338;2023-01-04T01:32:55;4.60;58.30
20231;DHT22;10274;49.022;9.338;2023-01-04T01:35:21;4.70;59.30
20231;DHT22;10274;49.022;9.338;2023-01-04T01:37:48;4.70;48.40
20231;DHT22;10274;49.022;9.338;2023-01-04T01:40:16;4.60;52.40
20231;DHT22;10274;49.022;9.338;2023-01-04T01:42:43;4.50;43.60
20231;DHT22;10274;49.022;9.338;2023-01-04T01:45:23;4.20;35.80
20231;DHT22;10274;49.022;9.338;2023-01-04T01:47:51;4.10;82.80
20231;DHT22;10274;49.022;9.338;2023-01-04T01:50:23;4.40;83.90
20231;DHT22;10274;49.022;9.338;2023-01-04T01:52:52;4.40;62.10
20231;DHT22;10274;49.022;9.338;2023-01-04T01:55:22;4.50;66.50
20231;DHT22;10274;49.022;9.338;2023-01-04T01:57:49;4.60;54.80
20231;DHT22;10274;49.022;9.338;2023-01-04T02:00:17;4.80;34.70
20231;DHT22;10274;49.022;9.338;2023-01-04T02:02:51;4.80;24.60
20231;DHT22;10274;49.022;9.338;2023-01-04T02:05:20;5.10;9.70
20231;DHT22;10274;49.022;9.338;2023-01-04T02:07:48;5.10;1.00
20231;DHT22;10274;49.022;9.338;2023-01-04T02:10:15;5.00;1.00
20231;DHT22;10274;49.022;9.338;2023-01-04T02:12:44;4.90;1.00
20231;DHT22;10274;49.022;9.338;2023-01-04T02:15:11;4.80;7.30
20231;DHT22;10274;49.022;9.338;2023-01-04T02:17:42;4.70;7.60
20231;DHT22;10274;49.022;9.338;2023-01-04T02:23:27;4.70;16.70
20231;DHT22;10274;49.022;9.338;2023-01-04T02:29:34;4.60;19.00
20231;DHT22;10274;49.022;9.338;2023-01-04T02:32:11;4.70;14.60
20231;DHT22;10274;49.022;9.338;2023-01-04T02:34:44;4.60;13.40
20231;DHT22;10274;49.022;9.338;2023-01-04T02:37:17;4.80;6.90
20231;DHT22;10274;49.022;9.338;2023-01-04T02:39:51;4.70;7.30
20231;DHT22;10274;49.022;9.338;2023-01-04T02:42:27;4.70;11.20
20231;DHT22;10274;49.022;9.338;2023-01-04T02:45:13;4.80;11.10
20231;DHT22;10274;49.022;9.338;2023-01-04T02:47:42;4.90;1.00
20231;DHT22;10274;49.022;9.338;2023-01-04T02:50:31;4.90;1.00
20231;DHT22;10274;49.022;9.338;2023-01-04T02:53:02;5.20;1.00
20231;DHT22;10274;49.022;9.338;2023-01-04T02:55:42;5.20;1.00
20231;DHT22;10274;49.022;9.338;2023-01-04T02:58:22;5.20;1.00
20231;DHT22;10274;49.022;9.338;2023-01-04T03:00:56;5.10;1.00
20231;DHT22;10274;49.022;9.338;2023-01-04T03:03:50;5.10;1.00
20231;DHT22;10274;49.022;9.338;2023-01-04T03:06:40;5.00;1.00
20231;DHT22;10274;49.022;9.338;2023-01-04T03:09:13;4.90;1.00
20231;DHT22;10274;49.022;9.338;2023-01-04T03:11:46;4.90;1.00
20231;DHT22;10274;49.022;9.338;2023-01-04T03:14:34;5.00;1.00
20231;DHT22;10274;49.022;9.338;2023-01-04T03:17:06;5.00;1.00
20231;DHT22;10274;49.022;9.338;2023-01-04T03:19:36;5.10;1.00
20231;DHT22;10274;49.022;9.338;2023-01-04T03:22:28;5.10;1.00
20231;DHT22;10274;49.022;9.338;2023-01-04T03:25:14;5.10;1.00
20231;DHT22;10274;49.022;9.338;2023-01-04T03:28:00;4.90;1.00
20231;DHT22;10274;49.022;9.338;2023-01-04T03:30:49;5.00;1.00
20231;DHT22;10274;49.022;9.338;2023-01-04T03:33:34;5.00;1.00
20231;DHT22;10274;49.022;9.338;2023-01-04T03:36:28;4.90;1.00
20231;DHT22;10274;49.022;9.338;2023-01-04T03:39:01;4.90;1.00
20231;DHT22;10274;49.022;9.338;2023-01-04T03:41:48;5.00;1.00
20231;DHT22;10274;49.022;9.338;2023-01-04T03:44:40;5.10;1.00
20231;DHT22;10274;49.022;9.338;2023-01-04T03:47:32;5.00;1.00
20231;DHT22;10274;49.022;9.338;2023-01-04T03:50:21;4.90;1.00
20231;DHT22;10274;49.022;9.338;2023-01-04T03:52:52;4.90;1.00
20231;DHT22;10274;49.022;9.338;2023-01-04T03:55:20;5.00;1.00
20231;DHT22;10274;49.022;9.338;2023-01-04T03:57:47;5.00;1.00
20231;DHT22;10274;49.022;9.338;2023-01-04T04:00:16;5.00;1.00
20231;DHT22;10274;49.022;9.338;2023-01-04T04:02:45;5.10;1.00
20231;DHT22;10274;49.022;9.338;2023-01-04T04:05:16;5.10;1.00
20231;DHT22;10274;49.022;9.338;2023-01-04T04:08:02;5.30;1.00
20231;DHT22;10274;49.022;9.338;2023-01-04T04:10:47;5.20;1.00
20231;DHT22;10274;49.022;9.338;2023-01-04T04:13:14;5.10;1.00
20231;DHT22;10274;49.022;9.338;2023-01-04T04:15:40;5.10;1.00
20231;DHT22;10274;49.022;9.338;2023-01-04T04:18:07;5.20;1.00
20231;DHT22;10274;49.022;9.338;2023-01-04T04:20:34;5.10;1.00
20231;DHT22;10274;49.022;9.338;2023-01-04T04:23:02;5.20;1.00
20231;DHT22;10274;49.022;9.338;2023-01-04T04:25:29;5.40;1.00
20231;DHT22;10274;49.022;9.338;2023-01-04T04:27:56;5.40;1.00
20231;DHT22;10274;49.022;9.338;2023-01-04T04:30:23;5.30;1.00
20231;DHT22;10274;49.022;9.338;2023-01-04T04:32:49;5.30;1.00
20231;DHT22;10274;49.022;9.338;2023-01-04T04:35:16;5.20;1.00
20231;DHT22;10274;49.022;9.338;2023-01-04T04:37:43;5.30;1.00
20231;DHT22;10274;49.022;9.338;2023-01-04T04:40:12;5.30;1.00
20231;DHT22;10274;49.022;9.338;2023-01-04T04:43:07;5.30;1.00
20231;DHT22;10274;49.022;9.338;2023-01-04T04:45:33;5.20;1.00
20231;DHT22;10274;49.022;9.338;2023-01-04T04:48:00;5.30;1.00
20231;DHT22;10274;49.022;9.338;2023-01-04T04:50:26;5.30;1.00
20231;DHT22;10274;49.022;9.338;2023-01-04T04:52:53;5.30;1.00
20231;DHT22;10274;49.022;9.338;2023-01-04T04:55:21;5.40;1.00
20231;DHT22;10274;49.022;9.338;2023-01-04T04:57:48;5.40;1.00
20231;DHT22;10274;49.022;9.338;2023-01-04T05:00:15;5.40;1.00
20231;DHT22;10274;49.022;9.338;2023-01-04T05:02:42;5.50;1.00
20231;DHT22;10274;49.022;9.338;2023-01-04T05:05:09;5.60;1.00
20231;DHT22;10274;49.022;9.338;2023-01-04T05:07:35;5.60;1.00
20231;DHT22;10274;49.022;9.338;2023-01-04T05:10:03;5.60;1.00
20231;DHT22;10274;49.022;9.338;2023-01-04T05:12:31;5.70;1.00
20231;DHT22;10274;49.022;9.338;2023-01-04T05:15:15;5.80;1.00
20231;DHT22;10274;49.022;9.338;2023-01-04T05:17:42;5.90;1.00
20231;DHT22;10274;49.022;9.338;2023-01-04T05:20:09;5.90;1.00
20231;DHT22;10274;49.022;9.338;2023-01-04T05:22:35;6.00;1.00
20231;DHT22;10274;49.022;9.338;2023-01-04T05:25:02;6.00;1.00
20231;DHT22;10274;49.022;9.338;2023-01-04T05:27:30;6.00;1.00
20231;DHT22;10274;49.022;9.338;2023-01-04T05:29:57;6.00;1.00
20231;DHT22;10274;49.022;9.338;2023-01-04T05:32:42;6.10;1.00
20231;DHT22;10274;49.022;9.338;2023-01-04T05:35:09;6.00;1.00
20231;DHT22;10274;49.022;9.338;2023-01-04T05:37:35;6.00;1.00
20231;DHT22;10274;49.022;9.338;2023-01-04T05:40:02;6.10;1.00
20231;DHT22;10274;49.022;9.338;2023-01-04T05:42:31;6.10;1.00
20231;DHT22;10274;49.022;9.338;2023-01-04T05:44:58;6.10;1.00
20231;DHT22;10274;49.022;9.338;2023-01-04T05:47:25;6.10;1.00
20231;DHT22;10274;49.022;9.338;2023-01-04T05:49:52;6.20;1.00
20231;DHT22;10274;49.022;9.338;2023-01-04T05:52:19;6.20;1.00
20231;DHT22;10274;49.022;9.338;2023-01-04T05:54:46;6.20;1.00
20231;DHT22;10274;49.022;9.338;2023-01-04T05:57:13;6.20;1.00
20231;DHT22;10274;49.022;9.338;2023-01-04T05:59:42;6.20;1.00
20231;DHT22;10274;49.022;9.338;2023-01-04T06:02:13;6.30;1.00
20231;DHT22;10274;49.022;9.338;2023-01-04T06:04:40;6.30;1.00
20231;DHT22;10274;49.022;9.338;2023-01-04T06:07:06;6.30;1.00
20231;DHT22;10274;49.022;9.338;2023-01-04T06:09:33;6.30;1.00
20231;DHT22;10274;49.022;9.338;2023-01-04T06:11:59;6.20;1.00
20231;DHT22;10274;49.022;9.338;2023-01-04T06:14:26;6.30;1.00
20231;DHT22;10274;49.022;9.338;2023-01-04T06:16:54;6.30;1.00
20231;DHT22;10274;49.022;9.338;2023-01-04T06:19:21;6.30;1.00
20231;DHT22;10274;49.022;9.338;2023-01-04T06:21:47;6.40;1.00
20231;DHT22;10274;49.022;9.338;2023-01-04T06:24:14;6.50;1.00
20231;DHT22;10274;49.022;9.338;2023-01-04T06:26:41;6.50;1.00
20231;DHT22;10274;49.022;9.338;2023-01-04T06:29:07;6.40;1.00
20231;DHT22;10274;49.022;9.338;2023-01-04T06:31:34;6.40;1.00
20231;DHT22;10274;49.022;9.338;2023-01-04T06:34:02;6.40;1.00
20231;DHT22;10274;49.022;9.338;2023-01-04T06:36:29;6.40;1.00
20231;DHT22;10274;49.022;9.338;2023-01-04T06:38:56;6.50;1.00
20231;DHT22;10274;49.022;9.338;2023-01-04T06:41:23;6.50;1.00
20231;DHT22;10274;49.022;9.338;2023-01-04T06:43:50;6.50;1.00
20231;DHT22;10274;49.022;9.338;2023-01-04T06:46:17;6.50;1.00
20231;DHT22;10274;49.022;9.338;2023-01-04T06:48:43;6.60;1.00
20231;DHT22;10274;49.022;9.338;2023-01-04T06:51:11;6.60;1.00
20231;DHT22;10274;49.022;9.338;2023-01-04T06:53:38;6.50;1.00
20231;DHT22;10274;49.022;9.338;2023-01-04T06:56:05;6.50;1.00
20231;DHT22;10274;49.022;9.338;2023-01-04T06:58:33;6.60;1.00
20231;DHT22;10274;49.022;9.338;2023-01-04T07:01:00;6.60;1.00
20231;DHT22;10274;49.022;9.338;2023-01-04T07:03:26;6.60;1.00
20231;DHT22;10274;49.022;9.338;2023-01-04T07:05:53;6.60;1.00
20231;DHT22;10274;49.022;9.338;2023-01-04T07:08:21;6.60;1.00
20231;DHT22;10274;49.022;9.338;2023-01-04T07:10:48;6.60;1.00
20231;DHT22;10274;49.022;9.338;2023-01-04T07:13:15;6.70;1.00
20231;DHT22;10274;49.022;9.338;2023-01-04T07:15:42;6.70;1.00
20231;DHT22;10274;49.022;9.338;2023-01-04T07:18:09;6.60;1.00
20231;DHT22;10274;49.022;9.338;2023-01-04T07:20:36;6.80;1.00
20231;DHT22;10274;49.022;9.338;2023-01-04T07:23:03;6.80;1.00
20231;DHT22;10274;49.022;9.338;2023-01-04T07:25:31;6.70;1.00
20231;DHT22;10274;49.022;9.338;2023-01-04T07:27:58;6.80;1.00
20231;DHT22;10274;49.022;9.338;2023-01-04T07:30:25;6.80;1.00
20231;DHT22;10274;49.022;9.338;2023-01-04T07:32:53;6.80;1.00
20231;DHT22;10274;49.022;9.338;2023-01-04T07:35:20;6.80;1.00
20231;DHT22;10274;49.022;9.338;2023-01-04T07:37:48;6.80;1.00
20231;DHT22;10274;49.022;9.338;2023-01-04T07:40:14;6.80;1.00
20231;DHT22;10274;49.022;9.338;2023-01-04T07:42:42;6.60;1.00
20231;DHT22;10274;49.022;9.338;2023-01-04T07:45:09;6.60;1.00
20231;DHT22;10274;49.022;9.338;2023-01-04T07:47:36;6.60;1.00
20231;DHT22;10274;49.022;9.338;2023-01-04T07:50:03;6.50;1.00
20231;DHT22;10274;49.022;9.338;2023-01-04T07:52:30;6.50;1.00
20231;DHT22;10274;49.022;9.338;2023-01-04T07:54:57;6.40;1.00
20231;DHT22;10274;49.022;9.338;2023-01-04T07:57:24;6.40;1.00
20231;DHT22;10274;49.022;9.338;2023-01-04T07:59:52;6.30;8.50
20231;DHT22;10274;49.022;9.338;2023-01-04T08:02:18;6.30;15.70
20231;DHT22;10274;49.022;9.338;2023-01-04T08:04:45;6.30;35.80
20231;DHT22;10274;49.022;9.338;2023-01-04T08:07:12;6.30;27.40
20231;DHT22;10274;49.022;9.338;2023-01-04T08:09:38;6.20;51.70
20231;DHT22;10274;49.022;9.338;2023-01-04T08:12:05;6.30;46.10
20231;DHT22;10274;49.022;9.338;2023-01-04T08:14:32;6.30;28.70
20231;DHT22;10274;49.022;9.338;2023-01-04T08:16:59;6.30;54.20
20231;DHT22;10274;49.022;9.338;2023-01-04T08:19:26;6.30;47.30
20231;DHT22;10274;49.022;9.338;2023-01-04T08:21:53;6.30;50.10
20231;DHT22;10274;49.022;9.338;2023-01-04T08:24:20;6.40;36.70
20231;DHT22;10274;49.022;9.338;2023-01-04T08:26:46;6.30;48.60
20231;DHT22;10274;49.022;9.338;2023-01-04T08:29:13;6.40;54.10
20231;DHT22;10274;49.022;9.338;2023-01-04T08:31:40;6.40;64.50
20231;DHT22;10274;49.022;9.338;2023-01-04T08:34:08;6.50;44.10
20231;DHT22;10274;49.022;9.338;2023-01-04T08:36:44;6.50;28.50
20231;DHT22;10274;49.022;9.338;2023-01-04T08:39:10;6.50;47.00
20231;DHT22;10274;49.022;9.338;2023-01-04T08:41:38;6.50;56.80
20231;DHT22;10274;49.022;9.338;2023-01-04T08:46:43;6.50;65.90
20231;DHT22;10274;49.022;9.338;2023-01-04T08:49:11;6.60;63.60
20231;DHT22;10274;49.022;9.338;2023-01-04T08:51:38;6.60;37.70
20231;DHT22;10274;49.022;9.338;2023-01-04T08:54:04;6.80;17.60
20231;DHT22;10274;49.022;9.338;2023-01-04T08:56:31;6.90;1.00
20231;DHT22;10274;49.022;9.338;2023-01-04T08:58:58;6.80;1.00
20231;DHT22;10274;49.022;9.338;2023-01-04T09:01:25;6.90;1.00
20231;DHT22;10274;49.022;9.338;2023-01-04T09:03:52;6.90;1.00
20231;DHT22;10274;49.022;9.338;2023-01-04T09:06:21;6.90;1.00
20231;DHT22;10274;49.022;9.338;2023-01-04T09:08:48;6.90;1.00
20231;DHT22;10274;49.022;9.338;2023-01-04T09:11:17;7.00;1.00
20231;DHT22;10274;49.022;9.338;2023-01-04T09:13:44;7.10;1.00
20231;DHT22;10274;49.022;9.338;2023-01-04T09:16:12;7.10;1.00
20231;DHT22;10274;49.022;9.338;2023-01-04T09:18:39;7.10;1.00
20231;DHT22;10274;49.022;9.338;2023-01-04T09:21:07;7.00;1.00
20231;DHT22;10274;49.022;9.338;2023-01-04T09:23:36;7.00;1.00
20231;DHT22;10274;49.022;9.338;2023-01-04T09:26:07;7.00;1.00
20231;DHT22;10274;49.022;9.338;2023-01-04T09:28:34;7.00;1.00
20231;DHT22;10274;49.022;9.338;2023-01-04T09:31:04;7.10;1.00
20231;DHT22;10274;49.022;9.338;2023-01-04T09:33:31;7.10;1.00
20231;DHT22;10274;49.022;9.338;2023-01-04T09:36:00;7.10;1.00
20231;DHT22;10274;49.022;9.338;2023-01-04T09:38:27;7.10;1.00
20231;DHT22;10274;49.022;9.338;2023-01-04T09:41:02;7.20;1.00
20231;DHT22;10274;49.022;9.338;2023-01-04T09:43:38;7.20;1.00
20231;DHT22;10274;49.022;9.338;2023-01-04T09:46:10;7.30;1.00
20231;DHT22;10274;49.022;9.338;2023-01-04T09:48:40;7.40;1.00
20231;DHT22;10274;49.022;9.338;2023-01-04T09:51:13;7.40;1.00
20231;DHT22;10274;49.022;9.338;2023-01-04T09:53:45;7.40;1.00
20231;DHT22;10274;49.022;9.338;2023-01-04T09:56:19;7.40;1.00
20231;DHT22;10274;49.022;9.338;2023-01-04T09:58:47;7.40;1.00
20231;DHT22;10274;49.022;9.338;2023-01-04T10:01:19;7.50;1.00
20231;DHT22;10274;49.022;9.338;2023-01-04T10:03:52;7.60;1.00
20231;DHT22;10274;49.022;9.338;2023-01-04T10:06:20;7.60;1.00
20231;DHT22;10274;49.022;9.338;2023-01-04T10:08:47;7.60;1.00
20231;DHT22;10274;49.022;9.338;2023-01-04T10:11:27;7.70;1.00
20231;DHT22;10274;49.022;9.338;2023-01-04T10:14:20;7.70;1.00
20231;DHT22;10274;49.022;9.338;2023-01-04T10:17:09;7.80;1.00
20231;DHT22;10274;49.022;9.338;2023-01-04T10:22:39;7.90;1.00
20231;DHT22;10274;49.022;9.338;2023-01-04T10:25:19;7.90;1.00
20231;DHT22;10274;49.022;9.338;2023-01-04T10:27:56;7.90;1.00
20231;DHT22;10274;49.022;9.338;2023-01-04T10:30:33;7.90;1.00
20231;DHT22;10274;49.022;9.338;2023-01-04T10:33:10;8.00;1.00
20231;DHT22;10274;49.022;9.338;2023-01-04T10:35:37;8.00;1.00
20231;DHT22;10274;49.022;9.338;2023-01-04T10:38:12;8.10;1.00
20231;DHT22;10274;49.022;9.338;2023-01-04T10:40:41;8.30;1.00
20231;DHT22;10274;49.022;9.338;2023-01-04T10:43:15;8.30;1.00
20231;DHT22;10274;49.022;9.338;2023-01-04T10:45:47;8.40;1.00
20231;DHT22;10274;49.022;9.338;2023-01-04T10:48:21;8.60;1.00
20231;DHT22;10274;49.022;9.338;2023-01-04T10:50:53;8.70;1.00
20231;DHT22;10274;49.022;9.338;2023-01-04T10:53:25;8.80;1.00
20231;DHT22;10274;49.022;9.338;2023-01-04T10:55:57;8.90;1.00
20231;DHT22;10274;49.022;9.338;2023-01-04T10:58:33;9.00;1.00
20231;DHT22;10274;49.022;9.338;2023-01-04T11:01:03;9.10;1.00
20231;DHT22;10274;49.022;9.338;2023-01-04T11:03:35;9.20;1.00
20231;DHT22;10274;49.022;9.338;2023-01-04T11:06:08;9.30;99.90
20231;DHT22;10274;49.022;9.338;2023-01-04T11:08:41;9.40;99.90
20231;DHT22;10274;49.022;9.338;2023-01-04T11:11:14;9.50;99.90
20231;DHT22;10274;49.022;9.338;2023-01-04T11:13:44;9.60;99.90
20231;DHT22;10274;49.022;9.338;2023-01-04T11:16:10;9.60;99.90
20231;DHT22;10274;49.022;9.338;2023-01-04T11:18:38;9.70;99.90
20231;DHT22;10274;49.022;9.338;2023-01-04T11:21:09;9.70;99.90
20231;DHT22;10274;49.022;9.338;2023-01-04T11:23:36;9.70;99.90
20231;DHT22;10274;49.022;9.338;2023-01-04T11:26:07;9.70;99.90
20231;DHT22;10274;49.022;9.338;2023-01-04T11:28:36;9.70;99.90
20231;DHT22;10274;49.022;9.338;2023-01-04T11:31:15;9.70;99.90
20231;DHT22;10274;49.022;9.338;2023-01-04T11:33:51;9.70;99.90
20231;DHT22;10274;49.022;9.338;2023-01-04T11:36:32;9.70;99.90
20231;DHT22;10274;49.022;9.338;2023-01-04T11:39:00;9.70;99.90
20231;DHT22;10274;49.022;9.338;2023-01-04T11:41:27;9.80;1.00
20231;DHT22;10274;49.022;9.338;2023-01-04T11:43:59;9.80;1.00
20231;DHT22;10274;49.022;9.338;2023-01-04T11:46:27;9.80;1.00
20231;DHT22;10274;49.022;9.338;2023-01-04T11:48:54;9.80;1.00
20231;DHT22;10274;49.022;9.338;2023-01-04T11:51:36;9.80;1.00
20231;DHT22;10274;49.022;9.338;2023-01-04T11:54:17;9.80;99.50
20231;DHT22;10274;49.022;9.338;2023-01-04T11:56:58;9.80;1.00
20231;DHT22;10274;49.022;9.338;2023-01-04T11:59:25;9.80;37.50
20231;DHT22;10274;49.022;9.338;2023-01-04T12:02:18;9.80;99.90
20231;DHT22;10274;49.022;9.338;2023-01-04T12:04:45;9.80;19.30
20231;DHT22;10274;49.022;9.338;2023-01-04T12:07:26;9.80;99.90
20231;DHT22;10274;49.022;9.338;2023-01-04T12:09:54;9.80;99.90
20231;DHT22;10274;49.022;9.338;2023-01-04T12:12:23;9.80;99.90
20231;DHT22;10274;49.022;9.338;2023-01-04T12:14:53;9.90;99.90
20231;DHT22;10274;49.022;9.338;2023-01-04T12:17:25;10.00;99.90
20231;DHT22;10274;49.022;9.338;2023-01-04T12:19:56;9.90;99.90
20231;DHT22;10274;49.022;9.338;2023-01-04T12:22:29;9.80;99.90
20231;DHT22;10274;49.022;9.338;2023-01-04T12:24:57;9.80;1.00
20231;DHT22;10274;49.022;9.338;2023-01-04T12:27:25;9.60;1.00
20231;DHT22;10274;49.022;9.338;2023-01-04T12:29:55;9.50;1.00
20231;DHT22;10274;49.022;9.338;2023-01-04T12:32:42;9.40;1.00
20231;DHT22;10274;49.022;9.338;2023-01-04T12:39:00;9.20;1.00
20231;DHT22;10274;49.022;9.338;2023-01-04T12:47:38;9.00;4.80
20231;DHT22;10274;49.022;9.338;2023-01-04T12:50:25;8.90;19.80
20231;DHT22;10274;49.022;9.338;2023-01-04T12:52:58;8.90;29.60
20231;DHT22;10274;49.022;9.338;2023-01-04T12:55:50;8.90;8.90
20231;DHT22;10274;49.022;9.338;2023-01-04T12:58:39;9.00;2.30
20231;DHT22;10274;49.022;9.338;2023-01-04T13:03:54;9.00;1.00
20231;DHT22;10274;49.022;9.338;2023-01-04T13:06:23;9.10;1.00
20231;DHT22;10274;49.022;9.338;2023-01-04T13:08:52;9.20;1.00
20231;DHT22;10274;49.022;9.338;2023-01-04T13:14:28;9.40;1.00
20231;DHT22;10274;49.022;9.338;2023-01-04T13:17:17;9.40;1.00
20231;DHT22;10274;49.022;9.338;2023-01-04T13:19:44;9.50;1.00
20231;DHT22;10274;49.022;9.338;2023-01-04T13:22:25;9.50;1.00
20231;DHT22;10274;49.022;9.338;2023-01-04T13:24:54;9.60;1.00
20231;DHT22;10274;49.022;9.338;2023-01-04T13:27:22;9.70;1.00
20231;DHT22;10274;49.022;9.338;2023-01-04T13:29:50;9.70;1.00
20231;DHT22;10274;49.022;9.338;2023-01-04T13:32:21;9.70;1.00
20231;DHT22;10274;49.022;9.338;2023-01-04T13:34:53;9.80;1.00
20231;DHT22;10274;49.022;9.338;2023-01-04T13:37:28;9.90;1.00
20231;DHT22;10274;49.022;9.338;2023-01-04T13:40:20;9.90;1.00
20231;DHT22;10274;49.022;9.338;2023-01-04T13:42:50;9.90;1.00
20231;DHT22;10274;49.022;9.338;2023-01-04T13:48:21;10.20;1.00
20231;DHT22;10274;49.022;9.338;2023-01-04T13:51:00;10.10;1.00
20231;DHT22;10274;49.022;9.338;2023-01-04T13:53:29;10.10;1.00
20231;DHT22;10274;49.022;9.338;2023-01-04T13:55:58;10.10;1.00
20231;DHT22;10274;49.022;9.338;2023-01-04T13:58:26;10.30;1.00
20231;DHT22;10274;49.022;9.338;2023-01-04T14:00:55;10.30;1.00
20231;DHT22;10274;49.022;9.338;2023-01-04T14:03:33;10.20;1.00
20231;DHT22;10274;49.022;9.338;2023-01-04T14:06:12;10.30;1.00
20231;DHT22;10274;49.022;9.338;2023-01-04T14:08:45;10.40;1.00
20231;DHT22;10274;49.022;9.338;2023-01-04T14:11:19;10.40;1.00
20231;DHT22;10274;49.022;9.338;2023-01-04T14:14:16;10.40;1.00
20231;DHT22;10274;49.022;9.338;2023-01-04T14:16:44;10.40;1.00
20231;DHT22;10274;49.022;9.338;2023-01-04T14:22:33;10.60;1.00
20231;DHT22;10274;49.022;9.338;2023-01-04T14:25:35;10.70;99.90
20231;DHT22;10274;49.022;9.338;2023-01-04T14:28:29;10.70;99.90
20231;DHT22;10274;49.022;9.338;2023-01-04T14:31:12;10.70;99.90
20231;DHT22;10274;49.022;9.338;2023-01-04T14:33:42;10.70;99.90
20231;DHT22;10274;49.022;9.338;2023-01-04T14:36:12;10.70;1.00
20231;DHT22;10274;49.022;9.338;2023-01-04T14:38:42;10.70;99.90
20231;DHT22;10274;49.022;9.338;2023-01-04T14:41:17;10.80;99.90
20231;DHT22;10274;49.022;9.338;2023-01-04T14:43:47;10.80;99.90
20231;DHT22;10274;49.022;9.338;2023-01-04T14:46:14;10.80;99.90
20231;DHT22;10274;49.022;9.338;2023-01-04T14:48:41;10.70;99.90
20231;DHT22;10274;49.022;9.338;2023-01-04T14:51:09;10.80;99.90
20231;DHT22;10274;49.022;9.338;2023-01-04T14:53:37;10.70;99.90
20231;DHT22;10274;49.022;9.338;2023-01-04T14:56:04;10.80;99.90
20231;DHT22;10274;49.022;9.338;2023-01-04T14:58:32;10.70;99.90
20231;DHT22;10274;49.022;9.338;2023-01-04T15:00:58;10.80;99.90
20231;DHT22;10274;49.022;9.338;2023-01-04T15:03:25;10.80;99.90
20231;DHT22;10274;49.022;9.338;2023-01-04T15:05:52;10.80;99.90
20231;DHT22;10274;49.022;9.338;2023-01-04T15:08:18;10.80;99.90
20231;DHT22;10274;49.022;9.338;2023-01-04T15:10:45;10.80;99.90
20231;DHT22;10274;49.022;9.338;2023-01-04T15:13:13;10.80;99.90
20231;DHT22;10274;49.022;9.338;2023-01-04T15:15:41;10.80;99.90
20231;DHT22;10274;49.022;9.338;2023-01-04T15:18:08;10.80;99.90
20231;DHT22;10274;49.022;9.338;2023-01-04T15:20:38;10.80;99.90
20231;DHT22;10274;49.022;9.338;2023-01-04T15:23:05;10.80;99.90
20231;DHT22;10274;49.022;9.338;2023-01-04T15:25:31;10.90;99.90
20231;DHT22;10274;49.022;9.338;2023-01-04T15:27:58;10.90;99.90
20231;DHT22;10274;49.022;9.338;2023-01-04T15:30:25;10.90;99.90
20231;DHT22;10274;49.022;9.338;2023-01-04T15:32:53;10.80;99.90
20231;DHT22;10274;49.022;9.338;2023-01-04T15:35:20;10.80;99.90
20231;DHT22;10274;49.022;9.338;2023-01-04T15:37:46;10.80;99.90
20231;DHT22;10274;49.022;9.338;2023-01-04T15:40:16;10.80;99.90
20231;DHT22;10274;49.022;9.338;2023-01-04T15:42:43;10.90;99.90
20231;DHT22;10274;49.022;9.338;2023-01-04T15:45:24;10.80;99.90
20231;DHT22;10274;49.022;9.338;2023-01-04T15:47:52;10.70;99.90
20231;DHT22;10274;49.022;9.338;2023-01-04T15:50:22;10.80;99.90
20231;DHT22;10274;49.022;9.338;2023-01-04T15:52:48;10.90;99.90
20231;DHT22;10274;49.022;9.338;2023-01-04T15:55:15;10.90;99.90
20231;DHT22;10274;49.022;9.338;2023-01-04T15:57:42;10.80;99.90
20231;DHT22;10274;49.022;9.338;2023-01-04T16:00:10;10.90;99.90
20231;DHT22;10274;49.022;9.338;2023-01-04T16:02:36;10.80;99.90
20231;DHT22;10274;49.022;9.338;2023-01-04T16:05:05;10.90;99.90
20231;DHT22;10274;49.022;9.338;2023-01-04T16:07:32;10.80;99.90
20231;DHT22;10274;49.022;9.338;2023-01-04T16:09:58;10.90;99.90
20231;DHT22;10274;49.022;9.338;2023-01-04T16:12:25;10.80;99.90
20231;DHT22;10274;49.022;9.338;2023-01-04T16:15:08;10.80;99.90
20231;DHT22;10274;49.022;9.338;2023-01-04T16:17:35;10.90;99.90
20231;DHT22;10274;49.022;9.338;2023-01-04T16:20:02;11.00;99.90
20231;DHT22;10274;49.022;9.338;2023-01-04T16:22:31;10.90;99.90
20231;DHT22;10274;49.022;9.338;2023-01-04T16:24:58;10.70;99.90
20231;DHT22;10274;49.022;9.338;2023-01-04T16:27:24;10.80;99.90
20231;DHT22;10274;49.022;9.338;2023-01-04T16:29:51;10.80;99.90
20231;DHT22;10274;49.022;9.338;2023-01-04T16:32:18;10.80;99.90
20231;DHT22;10274;49.022;9.338;2023-01-04T16:34:45;10.80;99.90
20231;DHT22;10274;49.022;9.338;2023-01-04T16:37:13;10.80;99.90
20231;DHT22;10274;49.022;9.338;2023-01-04T16:39:41;10.90;99.90
20231;DHT22;10274;49.022;9.338;2023-01-04T16:42:08;11.00;99.90
20231;DHT22;10274;49.022;9.338;2023-01-04T16:44:37;11.00;99.90
20231;DHT22;10274;49.022;9.338;2023-01-04T16:47:05;10.90;99.90
20231;DHT22;10274;49.022;9.338;2023-01-04T16:49:32;11.00;99.90